sensor_id;sensor_type;location;lat;lon;timestamp;P1;durP1;ratioP1;P2;durP2;ratioP2
23449;SDS011;11897;45.438;12.128;2023-02-15T00:00:35;38.20;;;15.80;;
23449;SDS011;11897;45.438;12.128;2023-02-15T00:03:03;45.67;;;16.37;;
23449;SDS011;11897;45.438;12.128;2023-02-15T00:05:30;39.90;;;16.30;;
23449;SDS011;11897;45.438;12.128;2023-02-15T00:07:56;35.63;;;16.40;;
23449;SDS011;11897;45.438;12.128;2023-02-15T00:10:23;38.33;;;15.53;;
23449;SDS011;11897;45.438;12.128;2023-02-15T00:12:49;31.70;;;14.37;;
23449;SDS011;11897;45.438;12.128;2023-02-15T00:15:16;35.67;;;13.87;;
23449;SDS011;11897;45.438;12.128;2023-02-15T00:17:43;31.27;;;14.07;;
23449;SDS011;11897;45.438;12.128;2023-02-15T00:20:11;27.83;;;13.17;;
23449;SDS011;11897;45.438;12.128;2023-02-15T00:22:38;24.43;;;12.47;;
23449;SDS011;11897;45.438;12.128;2023-02-15T00:25:04;27.83;;;13.90;;
23449;SDS011;11897;45.438;12.128;2023-02-15T00:27:32;36.67;;;15.53;;
23449;SDS011;11897;45.438;12.128;2023-02-15T00:30:01;30.50;;;13.70;;
23449;SDS011;11897;45.438;12.128;2023-02-15T00:32:28;38.73;;;15.70;;
23449;SDS011;11897;45.438;12.128;2023-02-15T00:34:57;31.87;;;15.80;;
23449;SDS011;11897;45.438;12.128;2023-02-15T00:37:25;41.00;;;17.50;;
23449;SDS011;11897;45.438;12.128;2023-02-15T00:39:51;34.77;;;16.13;;
23449;SDS011;11897;45.438;12.128;2023-02-15T00:42:18;30.30;;;13.90;;
23449;SDS011;11897;45.438;12.128;2023-02-15T00:44:45;35.23;;;13.07;;
23449;SDS011;11897;45.438;12.128;2023-02-15T00:47:11;25.47;;;12.33;;
23449;SDS011;11897;45.438;12.128;2023-02-15T00:49:38;30.43;;;14.00;;
23449;SDS011;11897;45.438;12.128;2023-02-15T00:52:04;35.87;;;14.73;;
23449;SDS011;11897;45.438;12.128;2023-02-15T00:54:32;37.03;;;14.80;;
23449;SDS011;11897;45.438;12.128;2023-02-15T00:56:59;40.17;;;14.57;;
23449;SDS011;11897;45.438;12.128;2023-02-15T00:59:26;29.13;;;14.33;;
23449;SDS011;11897;45.438;12.128;2023-02-15T01:01:53;26.80;;;13.80;;
23449;SDS011;11897;45.438;12.128;2023-02-15T01:04:19;26.63;;;13.50;;
23449;SDS011;11897;45.438;12.128;2023-02-15T01:06:46;31.67;;;13.67;;
23449;SDS011;11897;45.438;12.128;2023-02-15T01:09:13;28.57;;;13.93;;
23449;SDS011;11897;45.438;12.128;2023-02-15T01:11:41;28.17;;;14.77;;
23449;SDS011;11897;45.438;12.128;2023-02-15T01:14:07;36.23;;;16.17;;
23449;SDS011;11897;45.438;12.128;2023-02-15T01:16:37;36.50;;;15.77;;
23449;SDS011;11897;45.438;12.128;2023-02-15T01:19:04;41.30;;;16.57;;
23449;SDS011;11897;45.438;12.128;2023-02-15T01:21:31;31.63;;;15.80;;
23449;SDS011;11897;45.438;12.128;2023-02-15T01:23:59;33.73;;;16.77;;
23449;SDS011;11897;45.438;12.128;2023-02-15T01:26:26;36.53;;;17.30;;
23449;SDS011;11897;45.438;12.128;2023-02-15T01:28:54;39.40;;;17.07;;
23449;SDS011;11897;45.438;12.128;2023-02-15T01:31:22;34.57;;;17.57;;
23449;SDS011;11897;45.438;12.128;2023-02-15T01:33:49;42.93;;;17.37;;
23449;SDS011;11897;45.438;12.128;2023-02-15T01:36:17;40.27;;;15.97;;
23449;SDS011;11897;45.438;12.128;2023-02-15T01:38:44;36.10;;;16.23;;
23449;SDS011;11897;45.438;12.128;2023-02-15T01:41:10;49.17;;;17.90;;
23449;SDS011;11897;45.438;12.128;2023-02-15T01:43:49;45.17;;;18.40;;
23449;SDS011;11897;45.438;12.128;2023-02-15T01:46:20;40.77;;;18.17;;
23449;SDS011;11897;45.438;12.128;2023-02-15T01:48:48;35.87;;;16.20;;
23449;SDS011;11897;45.438;12.128;2023-02-15T01:51:17;31.67;;;15.20;;
23449;SDS011;11897;45.438;12.128;2023-02-15T01:53:46;33.27;;;15.37;;
23449;SDS011;11897;45.438;12.128;2023-02-15T01:56:15;34.30;;;15.83;;
23449;SDS011;11897;45.438;12.128;2023-02-15T01:58:47;32.10;;;16.77;;
23449;SDS011;11897;45.438;12.128;2023-02-15T02:01:17;35.27;;;15.63;;
23449;SDS011;11897;45.438;12.128;2023-02-15T02:03:50;44.87;;;18.33;;
23449;SDS011;11897;45.438;12.128;2023-02-15T02:06:21;40.53;;;18.53;;
23449;SDS011;11897;45.438;12.128;2023-02-15T02:08:48;49.03;;;18.10;;
23449;SDS011;11897;45.438;12.128;2023-02-15T02:11:15;44.43;;;19.10;;
23449;SDS011;11897;45.438;12.128;2023-02-15T02:13:45;44.03;;;18.03;;
23449;SDS011;11897;45.438;12.128;2023-02-15T02:16:14;42.30;;;17.60;;
23449;SDS011;11897;45.438;12.128;2023-02-15T02:18:44;40.23;;;16.20;;
23449;SDS011;11897;45.438;12.128;2023-02-15T02:21:31;43.93;;;16.60;;
23449;SDS011;11897;45.438;12.128;2023-02-15T02:24:08;44.00;;;17.83;;
23449;SDS011;11897;45.438;12.128;2023-02-15T02:26:51;38.50;;;17.40;;
23449;SDS011;11897;45.438;12.128;2023-02-15T02:32:22;40.23;;;16.37;;
23449;SDS011;11897;45.438;12.128;2023-02-15T02:34:57;42.23;;;17.80;;
23449;SDS011;11897;45.438;12.128;2023-02-15T02:37:30;44.23;;;16.47;;
23449;SDS011;11897;45.438;12.128;2023-02-15T02:40:00;38.57;;;16.20;;
23449;SDS011;11897;45.438;12.128;2023-02-15T02:42:31;37.57;;;16.97;;
23449;SDS011;11897;45.438;12.128;2023-02-15T02:45:02;50.80;;;18.30;;
23449;SDS011;11897;45.438;12.128;2023-02-15T02:47:30;40.63;;;17.57;;
23449;SDS011;11897;45.438;12.128;2023-02-15T02:50:01;39.70;;;17.93;;
23449;SDS011;11897;45.438;12.128;2023-02-15T02:52:35;38.83;;;16.50;;
23449;SDS011;11897;45.438;12.128;2023-02-15T02:55:02;41.57;;;17.30;;
23449;SDS011;11897;45.438;12.128;2023-02-15T02:57:30;46.03;;;18.33;;
23449;SDS011;11897;45.438;12.128;2023-02-15T03:00:03;42.10;;;16.97;;
23449;SDS011;11897;45.438;12.128;2023-02-15T03:02:34;34.13;;;16.57;;
23449;SDS011;11897;45.438;12.128;2023-02-15T03:05:05;31.50;;;15.87;;
23449;SDS011;11897;45.438;12.128;2023-02-15T03:07:33;37.90;;;17.27;;
23449;SDS011;11897;45.438;12.128;2023-02-15T03:10:03;37.90;;;15.83;;
23449;SDS011;11897;45.438;12.128;2023-02-15T03:12:32;49.33;;;16.00;;
23449;SDS011;11897;45.438;12.128;2023-02-15T03:15:01;34.40;;;17.90;;
23449;SDS011;11897;45.438;12.128;2023-02-15T03:17:30;40.43;;;18.13;;
23449;SDS011;11897;45.438;12.128;2023-02-15T03:20:00;41.40;;;17.70;;
23449;SDS011;11897;45.438;12.128;2023-02-15T03:22:33;36.33;;;16.97;;
23449;SDS011;11897;45.438;12.128;2023-02-15T03:25:02;42.07;;;18.37;;
23449;SDS011;11897;45.438;12.128;2023-02-15T03:27:31;35.77;;;18.37;;
23449;SDS011;11897;45.438;12.128;2023-02-15T03:30:00;34.80;;;17.67;;
23449;SDS011;11897;45.438;12.128;2023-02-15T03:32:28;41.90;;;17.83;;
23449;SDS011;11897;45.438;12.128;2023-02-15T03:34:56;43.60;;;18.00;;
23449;SDS011;11897;45.438;12.128;2023-02-15T03:37:24;37.80;;;15.53;;
23449;SDS011;11897;45.438;12.128;2023-02-15T03:39:55;44.97;;;16.37;;
23449;SDS011;11897;45.438;12.128;2023-02-15T03:42:43;48.23;;;17.67;;
23449;SDS011;11897;45.438;12.128;2023-02-15T03:45:11;37.10;;;16.40;;
23449;SDS011;11897;45.438;12.128;2023-02-15T03:47:41;42.97;;;17.40;;
23449;SDS011;11897;45.438;12.128;2023-02-15T03:50:10;36.57;;;15.53;;
23449;SDS011;11897;45.438;12.128;2023-02-15T03:52:51;41.70;;;15.93;;
23449;SDS011;11897;45.438;12.128;2023-02-15T03:55:19;36.20;;;17.43;;
23449;SDS011;11897;45.438;12.128;2023-02-15T03:57:46;36.50;;;15.57;;
23449;SDS011;11897;45.438;12.128;2023-02-15T04:00:30;47.07;;;17.87;;
23449;SDS011;11897;45.438;12.128;2023-02-15T04:03:20;36.13;;;16.20;;
23449;SDS011;11897;45.438;12.128;2023-02-15T04:05:48;43.87;;;18.27;;
23449;SDS011;11897;45.438;12.128;2023-02-15T04:08:16;35.47;;;17.30;;
23449;SDS011;11897;45.438;12.128;2023-02-15T04:10:44;40.13;;;16.17;;
23449;SDS011;11897;45.438;12.128;2023-02-15T04:13:20;40.63;;;16.63;;
23449;SDS011;11897;45.438;12.128;2023-02-15T04:15:47;36.03;;;15.33;;
23449;SDS011;11897;45.438;12.128;2023-02-15T04:18:33;41.07;;;16.47;;
23449;SDS011;11897;45.438;12.128;2023-02-15T04:21:17;37.23;;;15.77;;
23449;SDS011;11897;45.438;12.128;2023-02-15T04:24:01;40.47;;;15.57;;
23449;SDS011;11897;45.438;12.128;2023-02-15T04:26:46;36.87;;;15.83;;
23449;SDS011;11897;45.438;12.128;2023-02-15T04:29:13;38.40;;;14.67;;
23449;SDS011;11897;45.438;12.128;2023-02-15T04:31:40;33.33;;;15.27;;
23449;SDS011;11897;45.438;12.128;2023-02-15T04:34:08;41.33;;;16.90;;
23449;SDS011;11897;45.438;12.128;2023-02-15T04:36:34;36.83;;;15.80;;
23449;SDS011;11897;45.438;12.128;2023-02-15T04:39:01;35.73;;;16.03;;
23449;SDS011;11897;45.438;12.128;2023-02-15T04:41:28;35.40;;;14.60;;
23449;SDS011;11897;45.438;12.128;2023-02-15T04:43:56;46.80;;;17.50;;
23449;SDS011;11897;45.438;12.128;2023-02-15T04:46:24;36.50;;;16.93;;
23449;SDS011;11897;45.438;12.128;2023-02-15T04:48:51;35.87;;;15.10;;
23449;SDS011;11897;45.438;12.128;2023-02-15T04:51:18;38.77;;;16.13;;
23449;SDS011;11897;45.438;12.128;2023-02-15T04:53:44;41.97;;;15.13;;
23449;SDS011;11897;45.438;12.128;2023-02-15T04:56:11;38.30;;;15.43;;
23449;SDS011;11897;45.438;12.128;2023-02-15T04:58:38;35.50;;;18.60;;
23449;SDS011;11897;45.438;12.128;2023-02-15T05:01:07;45.17;;;16.17;;
23449;SDS011;11897;45.438;12.128;2023-02-15T05:03:34;35.50;;;15.20;;
23449;SDS011;11897;45.438;12.128;2023-02-15T05:06:01;37.27;;;15.90;;
23449;SDS011;11897;45.438;12.128;2023-02-15T05:08:27;36.40;;;16.30;;
23449;SDS011;11897;45.438;12.128;2023-02-15T05:10:54;33.73;;;15.30;;
23449;SDS011;11897;45.438;12.128;2023-02-15T05:13:21;30.73;;;15.67;;
23449;SDS011;11897;45.438;12.128;2023-02-15T05:15:47;42.63;;;16.90;;
23449;SDS011;11897;45.438;12.128;2023-02-15T05:18:16;32.63;;;15.37;;
23449;SDS011;11897;45.438;12.128;2023-02-15T05:20:43;42.73;;;16.40;;
23449;SDS011;11897;45.438;12.128;2023-02-15T05:23:10;38.70;;;16.60;;
23449;SDS011;11897;45.438;12.128;2023-02-15T05:25:37;34.73;;;15.37;;
23449;SDS011;11897;45.438;12.128;2023-02-15T05:28:21;42.60;;;15.87;;
23449;SDS011;11897;45.438;12.128;2023-02-15T05:30:48;44.33;;;17.60;;
23449;SDS011;11897;45.438;12.128;2023-02-15T05:33:16;32.43;;;14.80;;
23449;SDS011;11897;45.438;12.128;2023-02-15T05:35:43;38.43;;;17.40;;
23449;SDS011;11897;45.438;12.128;2023-02-15T05:38:10;38.60;;;16.37;;
23449;SDS011;11897;45.438;12.128;2023-02-15T05:40:36;41.63;;;17.30;;
23449;SDS011;11897;45.438;12.128;2023-02-15T05:43:03;41.20;;;16.87;;
23449;SDS011;11897;45.438;12.128;2023-02-15T05:45:29;34.60;;;15.40;;
23449;SDS011;11897;45.438;12.128;2023-02-15T05:47:56;33.43;;;15.13;;
23449;SDS011;11897;45.438;12.128;2023-02-15T05:50:25;44.13;;;16.47;;
23449;SDS011;11897;45.438;12.128;2023-02-15T05:52:52;43.87;;;17.60;;
23449;SDS011;11897;45.438;12.128;2023-02-15T05:55:19;39.73;;;15.63;;
23449;SDS011;11897;45.438;12.128;2023-02-15T05:57:45;46.90;;;18.77;;
23449;SDS011;11897;45.438;12.128;2023-02-15T06:00:12;44.30;;;17.50;;
23449;SDS011;11897;45.438;12.128;2023-02-15T06:02:40;53.83;;;18.50;;
23449;SDS011;11897;45.438;12.128;2023-02-15T06:05:06;40.20;;;17.43;;
23449;SDS011;11897;45.438;12.128;2023-02-15T06:07:34;48.83;;;19.43;;
23449;SDS011;11897;45.438;12.128;2023-02-15T06:10:01;33.60;;;14.73;;
23449;SDS011;11897;45.438;12.128;2023-02-15T06:12:28;42.07;;;17.30;;
23449;SDS011;11897;45.438;12.128;2023-02-15T06:14:55;47.63;;;17.70;;
23449;SDS011;11897;45.438;12.128;2023-02-15T06:17:21;33.47;;;16.53;;
23449;SDS011;11897;45.438;12.128;2023-02-15T06:19:48;46.03;;;16.77;;
23449;SDS011;11897;45.438;12.128;2023-02-15T06:22:15;36.33;;;16.73;;
23449;SDS011;11897;45.438;12.128;2023-02-15T06:24:43;39.53;;;18.10;;
23449;SDS011;11897;45.438;12.128;2023-02-15T06:27:10;39.57;;;17.47;;
23449;SDS011;11897;45.438;12.128;2023-02-15T06:29:36;45.27;;;18.97;;
23449;SDS011;11897;45.438;12.128;2023-02-15T06:32:03;53.30;;;19.70;;
23449;SDS011;11897;45.438;12.128;2023-02-15T06:34:30;33.33;;;15.50;;
23449;SDS011;11897;45.438;12.128;2023-02-15T06:36:57;40.47;;;15.90;;
23449;SDS011;11897;45.438;12.128;2023-02-15T06:39:23;37.67;;;16.90;;
23449;SDS011;11897;45.438;12.128;2023-02-15T06:41:52;37.37;;;15.80;;
23449;SDS011;11897;45.438;12.128;2023-02-15T06:44:18;48.33;;;19.33;;
23449;SDS011;11897;45.438;12.128;2023-02-15T06:46:45;43.07;;;17.53;;
23449;SDS011;11897;45.438;12.128;2023-02-15T06:49:12;37.73;;;16.07;;
23449;SDS011;11897;45.438;12.128;2023-02-15T06:51:38;45.90;;;17.70;;
23449;SDS011;11897;45.438;12.128;2023-02-15T06:54:05;42.10;;;15.97;;
23449;SDS011;11897;45.438;12.128;2023-02-15T06:56:32;41.90;;;17.83;;
23449;SDS011;11897;45.438;12.128;2023-02-15T06:59:00;39.73;;;16.80;;
23449;SDS011;11897;45.438;12.128;2023-02-15T07:01:26;36.77;;;14.83;;
23449;SDS011;11897;45.438;12.128;2023-02-15T07:03:53;39.87;;;18.43;;
23449;SDS011;11897;45.438;12.128;2023-02-15T07:06:20;44.13;;;17.63;;
23449;SDS011;11897;45.438;12.128;2023-02-15T07:08:46;40.10;;;17.90;;
23449;SDS011;11897;45.438;12.128;2023-02-15T07:11:13;38.47;;;16.57;;
23449;SDS011;11897;45.438;12.128;2023-02-15T07:13:57;44.27;;;18.33;;
23449;SDS011;11897;45.438;12.128;2023-02-15T07:16:25;44.73;;;17.43;;
23449;SDS011;11897;45.438;12.128;2023-02-15T07:18:53;32.93;;;15.87;;
23449;SDS011;11897;45.438;12.128;2023-02-15T07:21:19;42.90;;;16.53;;
23449;SDS011;11897;45.438;12.128;2023-02-15T07:23:46;34.93;;;17.33;;
23449;SDS011;11897;45.438;12.128;2023-02-15T07:26:12;33.17;;;14.93;;
23449;SDS011;11897;45.438;12.128;2023-02-15T07:28:39;40.00;;;15.73;;
23449;SDS011;11897;45.438;12.128;2023-02-15T07:31:06;34.30;;;14.80;;
23449;SDS011;11897;45.438;12.128;2023-02-15T07:33:34;35.13;;;16.50;;
23449;SDS011;11897;45.438;12.128;2023-02-15T07:36:02;32.30;;;15.57;;
23449;SDS011;11897;45.438;12.128;2023-02-15T07:38:30;27.20;;;14.17;;
23449;SDS011;11897;45.438;12.128;2023-02-15T07:40:57;35.97;;;16.13;;
23449;SDS011;11897;45.438;12.128;2023-02-15T07:43:24;33.13;;;14.70;;
23449;SDS011;11897;45.438;12.128;2023-02-15T07:45:51;35.80;;;16.40;;
23449;SDS011;11897;45.438;12.128;2023-02-15T07:48:17;36.60;;;17.17;;
23449;SDS011;11897;45.438;12.128;2023-02-15T07:50:45;34.00;;;16.47;;
23449;SDS011;11897;45.438;12.128;2023-02-15T07:53:12;32.13;;;15.23;;
23449;SDS011;11897;45.438;12.128;2023-02-15T07:55:38;29.70;;;15.70;;
23449;SDS011;11897;45.438;12.128;2023-02-15T07:58:05;38.07;;;16.43;;
23449;SDS011;11897;45.438;12.128;2023-02-15T08:00:32;31.17;;;14.77;;
23449;SDS011;11897;45.438;12.128;2023-02-15T08:03:19;35.60;;;15.67;;
23449;SDS011;11897;45.438;12.128;2023-02-15T08:05:51;31.37;;;15.37;;
23449;SDS011;11897;45.438;12.128;2023-02-15T08:08:17;37.53;;;16.33;;
23449;SDS011;11897;45.438;12.128;2023-02-15T08:10:59;30.10;;;15.60;;
23449;SDS011;11897;45.438;12.128;2023-02-15T08:13:44;35.43;;;16.03;;
23449;SDS011;11897;45.438;12.128;2023-02-15T08:16:31;30.40;;;15.90;;
23449;SDS011;11897;45.438;12.128;2023-02-15T08:18:58;34.67;;;15.30;;
23449;SDS011;11897;45.438;12.128;2023-02-15T08:21:27;35.03;;;16.37;;
23449;SDS011;11897;45.438;12.128;2023-02-15T08:23:54;28.73;;;15.83;;
23449;SDS011;11897;45.438;12.128;2023-02-15T08:26:21;29.00;;;15.60;;
23449;SDS011;11897;45.438;12.128;2023-02-15T08:28:48;31.47;;;15.60;;
23449;SDS011;11897;45.438;12.128;2023-02-15T08:31:15;28.37;;;14.77;;
23449;SDS011;11897;45.438;12.128;2023-02-15T08:33:43;30.60;;;15.13;;
23449;SDS011;11897;45.438;12.128;2023-02-15T08:36:10;29.70;;;14.83;;
23449;SDS011;11897;45.438;12.128;2023-02-15T08:38:38;31.00;;;16.27;;
23449;SDS011;11897;45.438;12.128;2023-02-15T08:41:09;28.50;;;15.13;;
23449;SDS011;11897;45.438;12.128;2023-02-15T08:43:36;28.23;;;15.53;;
23449;SDS011;11897;45.438;12.128;2023-02-15T08:46:02;30.97;;;13.40;;
23449;SDS011;11897;45.438;12.128;2023-02-15T08:48:29;31.03;;;15.73;;
23449;SDS011;11897;45.438;12.128;2023-02-15T08:50:55;29.57;;;15.30;;
23449;SDS011;11897;45.438;12.128;2023-02-15T08:53:22;29.57;;;15.10;;
23449;SDS011;11897;45.438;12.128;2023-02-15T08:55:55;28.40;;;14.93;;
23449;SDS011;11897;45.438;12.128;2023-02-15T08:58:23;24.00;;;14.60;;
23449;SDS011;11897;45.438;12.128;2023-02-15T09:00:49;30.63;;;13.73;;
23449;SDS011;11897;45.438;12.128;2023-02-15T09:03:16;23.80;;;13.07;;
23449;SDS011;11897;45.438;12.128;2023-02-15T09:05:43;29.10;;;13.43;;
23449;SDS011;11897;45.438;12.128;2023-02-15T09:08:09;29.70;;;14.07;;
23449;SDS011;11897;45.438;12.128;2023-02-15T09:10:36;22.37;;;12.93;;
23449;SDS011;11897;45.438;12.128;2023-02-15T09:13:04;21.93;;;12.93;;
23449;SDS011;11897;45.438;12.128;2023-02-15T09:15:30;29.73;;;16.93;;
23449;SDS011;11897;45.438;12.128;2023-02-15T09:17:57;26.50;;;14.57;;
23449;SDS011;11897;45.438;12.128;2023-02-15T09:20:26;21.80;;;13.37;;
23449;SDS011;11897;45.438;12.128;2023-02-15T09:22:53;26.63;;;13.17;;
23449;SDS011;11897;45.438;12.128;2023-02-15T09:25:20;27.77;;;14.40;;
23449;SDS011;11897;45.438;12.128;2023-02-15T09:27:47;28.07;;;12.57;;
23449;SDS011;11897;45.438;12.128;2023-02-15T09:30:15;24.07;;;12.47;;
23449;SDS011;11897;45.438;12.128;2023-02-15T09:32:42;26.67;;;12.97;;
23449;SDS011;11897;45.438;12.128;2023-02-15T09:35:08;25.43;;;12.23;;
23449;SDS011;11897;45.438;12.128;2023-02-15T09:37:35;26.90;;;12.23;;
23449;SDS011;11897;45.438;12.128;2023-02-15T09:40:01;20.90;;;11.97;;
23449;SDS011;11897;45.438;12.128;2023-02-15T09:42:35;21.03;;;10.70;;
23449;SDS011;11897;45.438;12.128;2023-02-15T09:45:16;20.07;;;11.87;;
23449;SDS011;11897;45.438;12.128;2023-02-15T09:48:00;18.17;;;10.97;;
23449;SDS011;11897;45.438;12.128;2023-02-15T09:50:31;24.07;;;11.93;;
23449;SDS011;11897;45.438;12.128;2023-02-15T09:53:03;25.17;;;11.93;;
23449;SDS011;11897;45.438;12.128;2023-02-15T09:55:40;25.80;;;11.37;;
23449;SDS011;11897;45.438;12.128;2023-02-15T09:58:11;24.53;;;12.13;;
23449;SDS011;11897;45.438;12.128;2023-02-15T10:00:44;21.47;;;11.03;;
23449;SDS011;11897;45.438;12.128;2023-02-15T10:03:15;25.20;;;11.93;;
23449;SDS011;11897;45.438;12.128;2023-02-15T10:05:48;24.63;;;11.90;;
23449;SDS011;11897;45.438;12.128;2023-02-15T10:08:32;24.90;;;12.77;;
23449;SDS011;11897;45.438;12.128;2023-02-15T10:11:03;23.10;;;11.97;;
23449;SDS011;11897;45.438;12.128;2023-02-15T10:13:47;20.90;;;10.97;;
23449;SDS011;11897;45.438;12.128;2023-02-15T10:16:22;22.30;;;11.60;;
23449;SDS011;11897;45.438;12.128;2023-02-15T10:18:54;23.23;;;10.77;;
23449;SDS011;11897;45.438;12.128;2023-02-15T10:21:24;22.60;;;9.80;;
23449;SDS011;11897;45.438;12.128;2023-02-15T10:24:02;22.20;;;12.07;;
23449;SDS011;11897;45.438;12.128;2023-02-15T10:26:36;22.57;;;10.83;;
23449;SDS011;11897;45.438;12.128;2023-02-15T10:29:07;23.27;;;12.00;;
23449;SDS011;11897;45.438;12.128;2023-02-15T10:31:37;22.03;;;10.33;;
23449;SDS011;11897;45.438;12.128;2023-02-15T10:34:11;19.57;;;10.00;;
23449;SDS011;11897;45.438;12.128;2023-02-15T10:37:00;26.50;;;11.53;;
23449;SDS011;11897;45.438;12.128;2023-02-15T10:39:34;24.20;;;11.30;;
23449;SDS011;11897;45.438;12.128;2023-02-15T10:42:05;20.97;;;10.77;;
23449;SDS011;11897;45.438;12.128;2023-02-15T10:44:41;22.57;;;10.37;;
23449;SDS011;11897;45.438;12.128;2023-02-15T10:47:17;18.37;;;10.47;;
23449;SDS011;11897;45.438;12.128;2023-02-15T10:52:37;23.57;;;9.03;;
23449;SDS011;11897;45.438;12.128;2023-02-15T10:55:10;15.37;;;8.70;;
23449;SDS011;11897;45.438;12.128;2023-02-15T10:57:43;14.77;;;8.73;;
23449;SDS011;11897;45.438;12.128;2023-02-15T11:00:15;15.47;;;7.23;;
23449;SDS011;11897;45.438;12.128;2023-02-15T11:02:52;17.63;;;8.30;;
23449;SDS011;11897;45.438;12.128;2023-02-15T11:05:24;17.17;;;8.73;;
23449;SDS011;11897;45.438;12.128;2023-02-15T11:07:53;20.60;;;8.20;;
23449;SDS011;11897;45.438;12.128;2023-02-15T11:10:24;23.77;;;9.43;;
23449;SDS011;11897;45.438;12.128;2023-02-15T11:12:52;18.87;;;9.10;;
23449;SDS011;11897;45.438;12.128;2023-02-15T11:15:23;14.70;;;7.63;;
23449;SDS011;11897;45.438;12.128;2023-02-15T11:17:55;17.10;;;10.20;;
23449;SDS011;11897;45.438;12.128;2023-02-15T11:20:23;16.30;;;8.90;;
23449;SDS011;11897;45.438;12.128;2023-02-15T11:22:50;19.10;;;9.50;;
23449;SDS011;11897;45.438;12.128;2023-02-15T11:25:19;20.43;;;9.83;;
23449;SDS011;11897;45.438;12.128;2023-02-15T11:27:47;16.60;;;9.23;;
23449;SDS011;11897;45.438;12.128;2023-02-15T11:30:15;16.47;;;8.00;;
23449;SDS011;11897;45.438;12.128;2023-02-15T11:32:44;19.27;;;7.97;;
23449;SDS011;11897;45.438;12.128;2023-02-15T11:35:17;17.43;;;7.90;;
23449;SDS011;11897;45.438;12.128;2023-02-15T11:37:46;19.10;;;6.70;;
23449;SDS011;11897;45.438;12.128;2023-02-15T11:40:17;15.27;;;7.57;;
23449;SDS011;11897;45.438;12.128;2023-02-15T11:42:46;15.27;;;8.23;;
23449;SDS011;11897;45.438;12.128;2023-02-15T11:45:18;13.30;;;7.07;;
23449;SDS011;11897;45.438;12.128;2023-02-15T11:47:46;14.30;;;9.07;;
23449;SDS011;11897;45.438;12.128;2023-02-15T11:50:15;15.07;;;7.43;;
23449;SDS011;11897;45.438;12.128;2023-02-15T11:52:44;13.90;;;8.03;;
23449;SDS011;11897;45.438;12.128;2023-02-15T11:55:11;17.13;;;8.53;;
23449;SDS011;11897;45.438;12.128;2023-02-15T11:57:39;14.53;;;6.93;;
23449;SDS011;11897;45.438;12.128;2023-02-15T12:00:10;10.30;;;6.17;;
23449;SDS011;11897;45.438;12.128;2023-02-15T12:02:41;11.73;;;6.27;;
23449;SDS011;11897;45.438;12.128;2023-02-15T12:05:12;16.50;;;7.30;;
23449;SDS011;11897;45.438;12.128;2023-02-15T12:07:42;15.07;;;7.85;;
23449;SDS011;11897;45.438;12.128;2023-02-15T12:10:17;14.10;;;6.93;;
23449;SDS011;11897;45.438;12.128;2023-02-15T12:12:45;25.65;;;8.63;;
23449;SDS011;11897;45.438;12.128;2023-02-15T12:15:12;18.05;;;8.55;;
23449;SDS011;11897;45.438;12.128;2023-02-15T12:17:39;14.18;;;7.97;;
23449;SDS011;11897;45.438;12.128;2023-02-15T12:20:18;16.02;;;7.93;;
23449;SDS011;11897;45.438;12.128;2023-02-15T12:22:49;13.15;;;7.07;;
23449;SDS011;11897;45.438;12.128;2023-02-15T12:25:20;17.80;;;6.80;;
23449;SDS011;11897;45.438;12.128;2023-02-15T12:27:47;17.13;;;6.93;;
23449;SDS011;11897;45.438;12.128;2023-02-15T12:30:16;13.77;;;6.97;;
23449;SDS011;11897;45.438;12.128;2023-02-15T12:32:47;13.20;;;7.17;;
23449;SDS011;11897;45.438;12.128;2023-02-15T12:35:16;17.47;;;8.00;;
23449;SDS011;11897;45.438;12.128;2023-02-15T12:37:53;15.13;;;7.90;;
23449;SDS011;11897;45.438;12.128;2023-02-15T12:40:21;29.13;;;8.97;;
23449;SDS011;11897;45.438;12.128;2023-02-15T12:42:48;22.67;;;9.50;;
23449;SDS011;11897;45.438;12.128;2023-02-15T12:45:22;21.20;;;8.40;;
23449;SDS011;11897;45.438;12.128;2023-02-15T12:48:07;19.57;;;9.20;;
23449;SDS011;11897;45.438;12.128;2023-02-15T12:50:34;17.37;;;8.50;;
23449;SDS011;11897;45.438;12.128;2023-02-15T12:53:07;21.47;;;8.77;;
23449;SDS011;11897;45.438;12.128;2023-02-15T12:55:34;15.83;;;8.07;;
23449;SDS011;11897;45.438;12.128;2023-02-15T12:58:07;14.52;;;8.27;;
23449;SDS011;11897;45.438;12.128;2023-02-15T13:00:34;19.60;;;8.43;;
23449;SDS011;11897;45.438;12.128;2023-02-15T13:03:02;24.38;;;8.52;;
23449;SDS011;11897;45.438;12.128;2023-02-15T13:05:30;16.08;;;8.45;;
23449;SDS011;11897;45.438;12.128;2023-02-15T13:07:58;17.38;;;8.52;;
23449;SDS011;11897;45.438;12.128;2023-02-15T13:10:27;15.52;;;8.00;;
23449;SDS011;11897;45.438;12.128;2023-02-15T13:12:55;16.20;;;8.50;;
23449;SDS011;11897;45.438;12.128;2023-02-15T13:15:27;16.08;;;8.05;;
23449;SDS011;11897;45.438;12.128;2023-02-15T13:17:55;18.13;;;8.90;;
23449;SDS011;11897;45.438;12.128;2023-02-15T13:20:21;18.27;;;10.57;;
23449;SDS011;11897;45.438;12.128;2023-02-15T13:22:57;21.30;;;9.73;;
23449;SDS011;11897;45.438;12.128;2023-02-15T13:25:25;19.23;;;10.27;;
23449;SDS011;11897;45.438;12.128;2023-02-15T13:27:54;19.80;;;10.25;;
23449;SDS011;11897;45.438;12.128;2023-02-15T13:30:23;21.85;;;11.35;;
23449;SDS011;11897;45.438;12.128;2023-02-15T13:32:51;18.35;;;10.82;;
23449;SDS011;11897;45.438;12.128;2023-02-15T13:35:19;21.48;;;11.45;;
23449;SDS011;11897;45.438;12.128;2023-02-15T13:40:41;24.63;;;12.45;;
23449;SDS011;11897;45.438;12.128;2023-02-15T13:43:17;19.05;;;11.20;;
23449;SDS011;11897;45.438;12.128;2023-02-15T13:45:51;24.83;;;11.50;;
23449;SDS011;11897;45.438;12.128;2023-02-15T13:48:22;20.50;;;11.60;;
23449;SDS011;11897;45.438;12.128;2023-02-15T13:50:53;21.60;;;11.57;;
23449;SDS011;11897;45.438;12.128;2023-02-15T13:53:29;24.47;;;13.13;;
23449;SDS011;11897;45.438;12.128;2023-02-15T13:56:01;27.30;;;11.10;;
23449;SDS011;11897;45.438;12.128;2023-02-15T14:01:15;24.43;;;12.60;;
23449;SDS011;11897;45.438;12.128;2023-02-15T14:04:05;23.47;;;12.07;;
23449;SDS011;11897;45.438;12.128;2023-02-15T14:09:20;26.30;;;11.90;;
23449;SDS011;11897;45.438;12.128;2023-02-15T14:11:52;23.23;;;12.13;;
23449;SDS011;11897;45.438;12.128;2023-02-15T14:14:27;27.95;;;11.98;;
23449;SDS011;11897;45.438;12.128;2023-02-15T14:16:57;23.42;;;12.00;;
23449;SDS011;11897;45.438;12.128;2023-02-15T14:19:28;19.48;;;11.23;;
23449;SDS011;11897;45.438;12.128;2023-02-15T14:21:58;23.05;;;12.27;;
23449;SDS011;11897;45.438;12.128;2023-02-15T14:24:29;21.67;;;12.32;;
23449;SDS011;11897;45.438;12.128;2023-02-15T14:26:59;28.75;;;12.38;;
23449;SDS011;11897;45.438;12.128;2023-02-15T14:29:41;21.95;;;12.23;;
23449;SDS011;11897;45.438;12.128;2023-02-15T14:32:10;23.15;;;12.60;;
23449;SDS011;11897;45.438;12.128;2023-02-15T14:34:42;21.70;;;12.25;;
23449;SDS011;11897;45.438;12.128;2023-02-15T14:37:10;24.23;;;12.38;;
23449;SDS011;11897;45.438;12.128;2023-02-15T14:39:41;21.17;;;10.60;;